Temp     Hi    Low   Out    Dew  Wind  Wind   Wind    Hi    Hi   Wind   Heat    THW                Rain    Heat    Cool    In     In    In     In     In   In Air   Temp  Wind  Wind    ISS   Arc.
  Date    Time     Out   Temp   Temp   Hum    Pt. Speed   Dir    Run Speed   Dir  Chill  Index  Index   Bar    Rain  Rate    D-D     D-D    Temp   Hum    Dew   Heat    EMC Density    2nd  Samp   Tx   Recept  Int.
----------------------------------------------------------------------------------------------------------------------------------------------------------------------------------------------------------------------
18/07/18 12:10a    7.2    7.3    7.2    68    1.7   0.0   ---   0.00   0.0   ---    7.2    6.8    6.8  1012.1  0.00   0.0   0.078   0.000   17.3    31   -0.0   15.3   6.49 1.2073    41.7   175    2     78.8   10 
18/07/18 12:20a    7.1    7.2    7.1    69    1.7   0.0   ---   0.00   0.0   ---    7.1    6.8    6.8  1011.9  0.00   0.0   0.078   0.000   17.1    31   -0.2   15.1   6.49 1.2079    41.7   215    2     96.8   10 
18/07/18 12:30a    7.0    7.1    7.0    69    1.7   0.0     W   0.00   1.6     W    7.0    6.7    6.7  1011.7  0.00   0.0   0.079   0.000   17.0    31   -0.3   15.0   6.50 1.2081    41.7   212    2     95.5   10 
18/07/18 12:40a    6.8    7.0    6.8    70    1.7   0.0   ---   0.00   0.0   ---    6.8    6.6    6.6  1011.7  0.00   0.0   0.080   0.000   16.8    31   -0.4   14.9   6.50 1.2089    41.7   219    2     98.6   10 
18/07/18 12:50a    6.8    6.8    6.8    70    1.7   0.0   ---   0.00   0.0   ---    6.8    6.5    6.5  1012.1  0.00   0.0   0.080   0.000   16.8    32   -0.0   14.8   6.61 1.2093    41.7   215    2     96.8   10 
18/07/18  1:00a    6.8    6.8    6.8    71    1.9   0.0   WNW   0.00   4.8     W    6.8    6.6    6.6  1012.0  0.00   0.0   0.080   0.000   16.6    32   -0.2   14.7   6.61 1.2100    41.7   215    2     96.8   10 
18/07/18  1:10a    6.9    7.0    6.8    70    1.8   0.0   ---   0.00   0.0   ---    6.9    6.6    6.6  1012.0  0.00   0.0   0.079   0.000   16.5    32   -0.3   14.6   6.62 1.2106    41.7   211    2     95.0   10 
18/07/18  1:20a    6.8    6.9    6.8    70    1.7   0.0   ---   0.00   0.0   ---    6.8    6.6    6.6  1011.8  0.00   0.0   0.080   0.000   16.4    32   -0.4   14.5   6.62 1.2108    41.7   213    2     95.9   10 
18/07/18  1:30a    6.6    6.8    6.6    70    1.5   0.0   WNW   0.00   1.6   WNW    6.6    6.3    6.3  1011.9  0.00   0.0   0.081   0.000   16.3    32   -0.4   14.4   6.62 1.2112    41.7   218    2     98.2   10 
18/07/18  1:40a    6.5    6.6    6.5    68    1.0   0.0   WNW   0.00   4.8   WNW    6.5    6.2    6.2  1011.9  0.00   0.0   0.082   0.000   16.2    32   -0.5   14.3   6.63 1.2117    41.7   207    2     93.2   10 
18/07/18  1:50a    6.3    6.5    6.3    68    0.9   0.0   ---   0.00   0.0   ---    6.3    6.0    6.0  1012.1  0.00   0.0   0.083   0.000   16.1    32   -0.7   14.2   6.63 1.2127    41.7   215    2     96.8   10 
18/07/18  2:00a    6.3    6.3    6.3    68    0.8   0.0   ---   0.00   0.0   ---    6.3    5.9    5.9  1012.5  0.00   0.0   0.084   0.000   16.0    33   -0.3   14.2   6.83 1.2132    41.7   217    2     97.7   10 
18/07/18  2:10a    6.2    6.3    6.2    67    0.5   0.0    NW   0.00   9.7    NW    6.2    5.8    5.8  1012.5  0.00   0.0   0.084   0.000   15.9    33   -0.4   14.1   6.84 1.2137    41.7   216    2     97.3   10 
18/07/18  2:20a    5.9    6.2    5.9    67    0.3   0.0   ---   0.00   0.0   ---    5.9    5.6    5.6  1012.9  0.00   0.0   0.086   0.000   15.8    33   -0.5   13.9   6.84 1.2148    41.7   211    2     95.0   10 
18/07/18  2:30a    5.9    5.9    5.9    67    0.3   0.0   ---   0.00   0.0   ---    5.9    5.6    5.6  1013.0  0.00   0.0   0.086   0.000   15.7    33   -0.5   13.9   6.84 1.2152    41.7   214    2     96.4   10 
18/07/18  2:40a    5.9    5.9    5.9    66    0.0   0.0   ---   0.00   0.0   ---    5.9    5.5    5.5  1013.0  0.00   0.0   0.086   0.000   15.6    33   -0.6   13.8   6.85 1.2157    41.7   207    2     93.2   10 
18/07/18  2:50a    5.7    5.9    5.7    67    0.0   0.0   ---   0.00   0.0   ---    5.7    5.3    5.3  1013.0  0.00   0.0   0.088   0.000   15.6    33   -0.7   13.7   6.85 1.2159    41.7   215    2     96.8   10 
18/07/18  3:00a    5.4    5.7    5.4    67   -0.3   0.0   ---   0.00   0.0   ---    5.4    5.0    5.0  1012.8  0.00   0.0   0.090   0.000   15.4    33   -0.8   13.6   6.85 1.2162    41.7   213    2     95.9   10 
18/07/18  3:10a    5.2    5.4    5.2    68   -0.3   0.0   ---   0.00   0.0   ---    5.2    4.8    4.8  1012.8  0.00   0.0   0.091   0.000   15.4    33   -0.8   13.6   6.84 1.2164    41.7   217    2     97.7   10 
18/07/18  3:20a    5.0    5.2    5.0    69   -0.2   0.0   ---   0.00   0.0   ---    5.0    4.7    4.7  1012.7  0.00   0.0   0.093   0.000   15.3    33   -0.9   13.5   6.84 1.2169    41.7   207    2     93.2   10 
18/07/18  3:30a    4.9    5.0    4.9    68   -0.5   0.0   WNW   0.00   3.2   WNW    4.9    4.6    4.6  1013.1  0.00   0.0   0.093   0.000   15.3    33   -0.9   13.5   6.84 1.2173    41.7   212    2     95.5   10 
18/07/18  3:40a    5.0    5.0    4.9    68   -0.4   0.0   ---   0.00   0.0   ---    5.0    4.7    4.7  1013.1  0.00   0.0   0.093   0.000   15.3    33   -0.9   13.5   6.84 1.2173    41.7   208    2     93.7   10 
18/07/18  3:50a    4.8    5.1    4.8    70   -0.2   0.0   ---   0.00   0.0   ---    4.8    4.5    4.5  1013.5  0.00   0.0   0.094   0.000   15.2    33   -1.0   13.4   6.84 1.2181    41.7   214    2     96.4   10 
18/07/18  4:00a    4.8    4.8    4.8    71   -0.0   0.0   ---   0.00   0.0   ---    4.8    4.4    4.4  1013.6  0.00   0.0   0.094   0.000   15.1    33   -1.1   13.3   6.83 1.2188    41.7   205    2     92.3   10 
18/07/18  4:10a    4.6    4.8    4.6    70   -0.4   0.0   ---   0.00   0.0   ---    4.6    4.3    4.3  1013.6  0.00   0.0   0.095   0.000   15.1    33   -1.1   13.3   6.83 1.2190    41.7   208    2     93.7   10 
18/07/18  4:20a    4.3    4.6    4.3    71   -0.5   0.0   ---   0.00   0.0   ---    4.3    3.9    3.9  1013.7  0.00   0.0   0.098   0.000   14.9    33   -1.3   13.1   6.83 1.2199    41.7   213    2     95.9   10 
18/07/18  4:30a    4.1    4.3    4.1    71   -0.7   0.0   ---   0.00   0.0   ---    4.1    3.7    3.7  1013.6  0.00   0.0   0.099   0.000   14.7    33   -1.4   12.9   6.82 1.2205    41.7   207    2     93.2   10 
18/07/18  4:40a    3.7    4.1    3.7    71   -1.1   0.0   ---   0.00   0.0   ---    3.7    3.4    3.4  1013.6  0.00   0.0   0.101   0.000   14.6    33   -1.5   12.9   6.82 1.2211    41.7   209    2     94.1   10 
18/07/18  4:50a    3.5    3.7    3.5    72   -1.1   0.0   ---   0.00   0.0   ---    3.5    3.2    3.2  1013.8  0.00   0.0   0.103   0.000   14.6    33   -1.6   12.8   6.81 1.2215    41.7   216    2     97.3   10 
18/07/18  5:00a    3.3    3.5    3.3    73   -1.0   0.0   ---   0.00   0.0   ---    3.3    3.1    3.1  1013.7  0.00   0.0   0.104   0.000   14.4    33   -1.7   12.7   6.81 1.2220    41.7   218    2     98.2   10 
18/07/18  5:10a    3.3    3.3    3.3    73   -1.0   0.0   ---   0.00   0.0   ---    3.3    3.1    3.1  1013.7  0.00   0.0   0.104   0.000   14.3    33   -1.7   12.6   6.81 1.2225    41.7   211    2     95.0   10 
18/07/18  5:20a    3.4    3.5    3.3    72   -1.2   0.0   ---   0.00   0.0   ---    3.4    3.1    3.1  1014.4  0.00   0.0   0.104   0.000   14.3    34   -1.4   12.6   6.90 1.2234    41.7   210    2     94.6   10 
18/07/18  5:30a    3.3    3.4    3.3    73   -1.0   0.0    NW   0.00   4.8    NW    3.3    3.1    3.1  1014.2  0.00   0.0   0.104   0.000   14.2    34   -1.5   12.5   6.90 1.2237    41.7   213    2     95.9   10 
18/07/18  5:40a    3.4    3.4    3.3    74   -0.8   0.0   NNW   0.00   1.6   NNW    3.4    3.2    3.2  1014.2  0.00   0.0   0.104   0.000   14.0    34   -1.6   12.3   6.89 1.2245    41.7   213    2     95.9   10 
18/07/18  5:50a    3.4    3.4    3.4    74   -0.8   0.0   ---   0.00   0.0   ---    3.4    3.2    3.2  1014.2  0.00   0.0   0.104   0.000   13.9    34   -1.7   12.3   6.89 1.2248    41.7   209    2     94.1   10 
18/07/18  6:00a    3.3    3.5    3.3    75   -0.7   0.0   ---   0.00   0.0   ---    3.3    3.1    3.1  1014.6  0.00   0.0   0.105   0.000   13.8    34   -1.8   12.2   6.89 1.2257    41.7   209    2     94.1   10 
18/07/18  6:10a    3.0    3.3    3.0    76   -0.8   0.0   ---   0.00   0.0   ---    3.0    2.8    2.8  1014.6  0.00   0.0   0.106   0.000   13.8    34   -1.8   12.2   6.89 1.2260    41.7   207    2     93.2   10 
18/07/18  6:20a    3.1    3.1    2.9    78   -0.4   0.0   ---   0.00   0.0   ---    3.1    2.9    2.9  1014.7  0.00   0.0   0.106   0.000   13.7    34   -1.9   12.1   6.88 1.2267    41.7   212    2     95.5   10 
18/07/18  6:30a    3.0    3.1    3.0    78   -0.5   0.0   ---   0.00   0.0   ---    3.0    2.8    2.8  1014.7  0.00   0.0   0.106   0.000   13.6    35   -1.6   12.1   7.05 1.2268    41.7   203    2     91.4   10 
18/07/18  6:40a    2.7    2.9    2.7    78   -0.7   0.0   ---   0.00   0.0   ---    2.7    2.6    2.6  1014.7  0.00   0.0   0.108   0.000   13.6    35   -1.6   12.0   7.05 1.2270    41.7   215    2     96.8   10 
18/07/18  6:50a    2.4    2.7    2.4    79   -0.8   0.0   ---   0.00   0.0   ---    2.4    2.3    2.3  1014.9  0.00   0.0   0.110   0.000   13.6    35   -1.6   12.1   7.05 1.2270    41.7   211    2     95.0   10 
18/07/18  7:00a    2.3    2.4    2.3    81   -0.6   0.0   ---   0.00   0.0   ---    2.3    2.1    2.1  1015.2  0.00   0.0   0.111   0.000   13.7    36   -1.2   12.1   7.18 1.2268    41.7   207    2     93.2   10 
18/07/18  7:10a    2.3    2.3    2.3    81   -0.6   0.0   ---   0.00   0.0   ---    2.3    2.1    2.1  1015.2  0.00   0.0   0.111   0.000   13.8    36   -1.1   12.2   7.19 1.2263    41.7   213    2     95.9   10 
18/07/18  7:20a    2.1    2.3    2.1    82   -0.7   0.0   ---   0.00   0.0   ---    2.1    1.9    1.9  1015.4  0.00   0.0   0.113   0.000   13.8    35   -1.4   12.2   7.05 1.2265    41.7   198    2     89.2   10 
18/07/18  7:30a    2.1    2.1    2.1    83   -0.5   0.0   ---   0.00   0.0   ---    2.1    1.9    1.9  1015.4  0.00   0.0   0.113   0.000   13.9    37   -0.5   12.4   7.35 1.2256    41.7   217    2     97.7   10 
18/07/18  7:40a    2.3    2.3    2.1    83   -0.3   0.0   ---   0.00   0.0   ---    2.3    2.2    2.2  1015.4  0.00   0.0   0.111   0.000   17.6    38    3.1   16.0   7.55 1.2081    41.7   212    2     95.5   10 
18/07/18  7:50a    2.6    2.6    2.3    83   -0.0   0.0   ---   0.00   0.0   ---    2.6    2.4    2.4  1016.0  0.00   0.0   0.110   0.000   23.9    29    4.8   22.9   5.85 1.1818    41.7   214    2     96.4   10 
18/07/18  8:00a    2.8    2.8    2.6    83    0.2   0.0   ---   0.00   0.0   ---    2.8    2.7    2.7  1016.1  0.00   0.0   0.108   0.000   23.9    23    1.5   22.7   5.05 1.1841    41.7   216    2     97.3   10 
18/07/18  8:10a    3.3    3.3    2.8    83    0.7   0.0   ---   0.00   0.0   ---    3.3    3.2    3.2  1016.1  0.00   0.0   0.105   0.000   21.3    24   -0.1   19.0   5.34 1.1957    41.7   210    2     94.6   10 
18/07/18  8:20a    3.7    3.7    3.3    82    0.9   0.0   ---   0.00   0.0   ---    3.7    3.6    3.6  1015.8  0.00   0.0   0.101   0.000   18.7    26   -1.2   16.2   5.65 1.2063    41.7   209    2     94.1   10 
18/07/18  8:30a    4.0    4.0    3.7    81    1.0   0.0   ---   0.00   0.0   ---    4.0    3.8    3.8  1015.8  0.00   0.0   0.100   0.000   17.3    29   -0.9   15.1   6.15 1.2122    41.7   215    2     96.8   10 
18/07/18  8:40a    4.4    4.4    4.0    80    1.2   0.0   ---   0.00   0.0   ---    4.4    4.2    4.2  1015.8  0.00   0.0   0.097   0.000   16.6    30   -1.1   14.6   6.31 1.2151    41.7   213    2     95.9   10 
18/07/18  8:50a    4.7    4.7    4.4    79    1.3   0.0   NNW   0.00   8.0   NNW    4.7    4.5    4.5  1015.9  0.00   0.0   0.095   0.000   16.3    31   -0.9   14.4   6.52 1.2162    41.7   207    2     93.2   10 
18/07/18  9:00a    5.1    5.1    4.8    78    1.6   0.0   NNW   0.00   4.8   NNW    5.1    4.9    4.9  1016.0  0.00   0.0   0.092   0.000   16.4    32   -0.4   14.5   6.62 1.2159    41.7   205    2     92.3   10 
18/07/18  9:10a    5.3    5.3    5.1    76    1.4   0.0   ---   0.00   0.0   ---    5.3    5.1    5.1  1016.0  0.00   0.0   0.090   0.000   16.5    32   -0.3   14.6   6.62 1.2154    41.7   214    2     96.4   10 
18/07/18  9:20a    5.6    5.6    5.3    74    1.3   0.0   ---   0.00   0.0   ---    5.6    5.3    5.3  1016.3  0.00   0.0   0.089   0.000   16.5    33    0.2   14.6   6.82 1.2155    41.7   213    2     95.9   10 
18/07/18  9:30a    5.9    5.9    5.6    73    1.5   0.0   NNW   0.00   4.8   NNW    5.9    5.7    5.7  1016.6  0.00   0.0   0.086   0.000   16.6    33    0.3   14.7   6.81 1.2153    41.7   209    2     94.1   10 
18/07/18  9:40a    6.2    6.2    5.9    72    1.5   1.6   NNW   0.27   9.7   NNW    6.2    5.9    5.9  1016.6  0.00   0.0   0.084   0.000   16.7    33    0.3   14.8   6.81 1.2151    41.7   216    2     97.3   10 
18/07/18  9:50a    6.6    6.6    6.2    71    1.7   0.0   NNW   0.00   8.0   NNW    6.6    6.3    6.3  1016.6  0.00   0.0   0.081   0.000   16.8    33    0.4   14.9   6.80 1.2143    41.7   212    2     95.5   10 
18/07/18 10:00a    7.2    7.2    6.6    70    2.1   0.0   NNW   0.00   9.7   NNW    7.2    6.9    6.9  1016.5  0.00   0.0   0.077   0.000   16.9    33    0.5   15.1   6.80 1.2136    41.7   213    2     95.9   10 
18/07/18 10:10a    7.6    7.6    7.2    66    1.6   0.0   NNW   0.00   3.2   NNW    7.6    7.2    7.2  1016.5  0.00   0.0   0.075   0.000   17.1    33    0.7   15.2   6.79 1.2129    41.7   211    2     95.0   10 
18/07/18 10:20a    7.7    7.7    7.5    65    1.5   0.0   NNW   0.00   9.7   NNW    7.7    7.3    7.3  1016.8  0.00   0.0   0.074   0.000   17.2    33    0.8   15.3   6.79 1.2127    41.7   213    2     95.9   10 
18/07/18 10:30a    7.8    7.8    7.7    65    1.7   0.0   NNW   0.00   4.8   NNW    7.8    7.4    7.4  1016.8  0.00   0.0   0.073   0.000   17.4    33    0.9   15.5   6.78 1.2119    41.7   209    2     94.1   10 
18/07/18 10:40a    8.1    8.1    7.8    64    1.7   1.6   NNW   0.27  11.3     S    8.1    7.7    7.7  1016.8  0.00   0.0   0.071   0.000   17.6    33    1.1   15.7   6.78 1.2109    41.7   198    2     89.2   10 
18/07/18 10:50a    8.4    8.4    8.1    63    1.8   1.6   NNW   0.27   9.7   NNW    8.4    8.1    8.1  1016.5  0.00   0.0   0.069   0.000   17.9    33    1.4   16.0   6.77 1.2093    41.7   214    2     96.4   10 
18/07/18 11:00a    8.9    8.9    8.4    60    1.5   0.0   NNW   0.00   9.7   NNW    8.9    8.4    8.4  1016.4  0.00   0.0   0.066   0.000   18.1    32    1.1   16.2   6.56 1.2083    41.7   203    2     91.4   10 
18/07/18 11:10a    9.2    9.2    8.9    60    1.9   0.0   NNW   0.00   4.8   NNW    9.2    8.8    8.8  1016.4  0.00   0.0   0.063   0.000   18.2    32    1.2   16.2   6.56 1.2081    41.7   214    2     96.4   10 
18/07/18 11:20a    9.6    9.6    9.2    57    1.5   0.0   NNW   0.00   4.8   NNW    9.6    9.1    9.1  1016.5  0.00   0.0   0.061   0.000   18.3    32    1.3   16.3   6.55 1.2077    41.7   217    2     97.7   10 
18/07/18 11:30a   10.3   10.3    9.6    54    1.4   0.0     N   0.00   3.2     N   10.3    9.7    9.7  1016.4  0.00   0.0   0.056   0.000   18.3    32    1.3   16.3   6.55 1.2075    41.7   212    2     95.5   10 
18/07/18 11:40a   10.3   10.4   10.3    53    1.2   0.0   NNW   0.00   4.8   NNW   10.3    9.7    9.7  1016.4  0.00   0.0   0.056   0.000   18.3    32    1.3   16.4   6.55 1.2073    41.7   209    2     94.1   10 
18/07/18 11:50a   10.4   10.4   10.3    53    1.3   0.0   NNW   0.00  11.3   NNW   10.4    9.8    9.8  1016.0  0.00   0.0   0.055   0.000   18.3    31    0.9   16.3   6.45 1.2071    41.7   210    2     94.6   10 
18/07/18 12:00p   10.8   10.8   10.4    52    1.4   0.0   NNW   0.00   6.4   NNW   10.8   10.1   10.1  1015.9  0.00   0.0   0.052   0.000   18.3    31    0.9   16.3   6.45 1.2069    41.7   220    2     99.1   10 
18/07/18 12:10p   10.7   10.9   10.7    52    1.2   0.0   NNW   0.00   8.0   NNW   10.7    9.9    9.9  1015.9  0.00   0.0   0.053   0.000   18.4    31    1.0   16.4   6.45 1.2064    41.7   217    2     97.7   10 
18/07/18 12:20p   10.8   10.8   10.7    50    0.8   0.0   NNW   0.00   9.7   NNW   10.8   10.0   10.0  1015.8  0.00   0.0   0.052   0.000   18.4    31    1.0   16.4   6.45 1.2063    41.7   217    2     97.7   10 
18/07/18 12:30p   11.1   11.1   10.8    49    0.8   0.0   NNW   0.00   9.7   NNW   11.1   10.3   10.3  1015.4  0.00   0.0   0.050   0.000   18.6    31    1.1   16.6   6.44 1.2054    41.7   219    2     98.6   10 
18/07/18 12:40p   11.3   11.4   11.1    50    1.3   0.0   NNW   0.00   6.4   NNW   11.3   10.5   10.5  1015.4  0.00   0.0   0.049   0.000   18.6    31    1.1   16.6   6.44 1.2051    41.7   212    2     95.5   10 
18/07/18 12:50p   11.5   11.5   11.3    49    1.1   0.0   NNW   0.00   9.7   NNW   11.5   10.6   10.6  1015.2  0.00   0.0   0.047   0.000   18.6    31    1.1   16.6   6.44 1.2049    41.7   211    2     95.0   10 
18/07/18  1:00p   11.9   12.0   11.5    46    0.6   0.0   NNW   0.00   3.2   NNW   11.9   10.9   10.9  1015.0  0.00   0.0   0.045   0.000   18.7    30    0.8   16.7   6.25 1.2044    41.7   217    2     97.7   10 
18/07/18  1:10p   12.2   12.2   11.8    47    1.2   0.0   NNW   0.00   6.4   NNW   12.2   11.1   11.1  1015.0  0.00   0.0   0.043   0.000   18.7    30    0.8   16.7   6.25 1.2044    41.7   215    2     96.8   10 
18/07/18  1:20p   12.2   12.2   12.2    45    0.6   0.0   NNW   0.00   4.8   NNW   12.2   11.1   11.1  1015.2  0.00   0.0   0.042   0.000   18.8    30    0.9   16.8   6.25 1.2041    41.7   212    2     95.5   10 
18/07/18  1:30p   12.4   12.4   12.2    44    0.5   0.0   NNW   0.00   4.8   NNW   12.4   11.2   11.2  1015.2  0.00   0.0   0.041   0.000   18.9    30    0.9   16.9   6.25 1.2038    41.7   213    2     95.9   10 
18/07/18  1:40p   12.2   12.4   12.2    44    0.3   1.6   NNW   0.27   9.7   NNW   12.2   11.1   11.1  1015.2  0.00   0.0   0.043   0.000   18.9    29    0.4   16.8   6.13 1.2041    41.7   214    2     96.4   10 
18/07/18  1:50p   11.8   12.2   11.8    44   -0.0   1.6   NNW   0.27   9.7     N   11.8   10.8   10.8  1015.2  0.00   0.0   0.045   0.000   19.1    29    0.6   16.9   6.12 1.2033    41.7   191    2     86.0   10 
18/07/18  2:00p   12.1   12.2   11.9    43   -0.2   0.0    NW   0.00   9.7    NW   12.1   10.9   10.9  1015.2  0.00   0.0   0.044   0.000   19.2    28    0.2   16.9   5.95 1.2031    41.7   200    2     90.1   10 
18/07/18  2:10p   12.2   12.2   12.0    46    0.9   0.0    NW   0.00   4.8   NNW   12.2   11.1   11.1  1015.2  0.00   0.0   0.043   0.000   19.3    28    0.3   17.1   5.95 1.2026    41.7   204    2     91.9   10 
18/07/18  2:20p   12.7   12.7   12.2    45    1.0   0.0    NW   0.00   1.6    NW   12.7   11.5   11.5  1015.2  0.00   0.0   0.039   0.000   19.3    27   -0.2   16.9   5.85 1.2026    41.7   199    2     89.6   10 
18/07/18  2:30p   12.6   12.7   12.6    43    0.3   0.0    NW   0.00   4.8    NW   12.6   11.4   11.4  1015.2  0.00   0.0   0.040   0.000   19.3    28    0.3   17.1   5.95 1.2023    41.7   215    2     96.8   10 
18/07/18  2:40p   12.5   12.5   12.4    44    0.6   0.0    NW   0.00   3.2   WNW   12.5   11.3   11.3  1015.2  0.00   0.0   0.041   0.000   19.3    28    0.3   17.1   5.95 1.2023    41.7   204    2     91.9   10 
18/07/18  2:50p   12.5   12.5   12.5    44    0.6   0.0   ---   0.00   0.0   ---   12.5   11.3   11.3  1015.2  0.00   0.0   0.041   0.000   19.3    28    0.3   17.1   5.95 1.2023    41.7   198    2     89.2   10 
18/07/18  3:00p   12.2   12.5   12.2    46    0.9   0.0   WNW   0.00   1.6   WNW   12.2   11.1   11.1  1015.3  0.00   0.0   0.043   0.000   19.3    28    0.3   17.1   5.95 1.2027    41.7   206    2     92.8   10 
18/07/18  3:10p   11.3   12.1   11.3    47    0.4   0.0   WNW   0.00   4.8   WNW   11.3   10.4   10.4  1015.3  0.00   0.0   0.049   0.000   19.2    29    0.7   17.1   6.12 1.2029    41.7   203    2     91.4   10 
18/07/18  3:20p   10.8   11.3   10.8    49    0.5   0.0   ---   0.00   0.0   ---   10.8   10.0   10.0  1015.6  0.00   0.0   0.052   0.000   19.1    29    0.6   16.9   6.12 1.2038    41.7   211    2     95.0   10 
18/07/18  3:30p   10.3   10.8   10.3    51    0.6   0.0     W   0.00   3.2     W   10.3    9.6    9.6  1015.5  0.00   0.0   0.056   0.000   19.0    29    0.5   16.9   6.13 1.2039    41.7   202    2     91.0   10 
18/07/18  3:40p    9.9   10.3    9.9    52    0.5   0.0   ---   0.00   0.0   ---    9.9    9.3    9.3  1015.5  0.00   0.0   0.058   0.000   18.9    28   -0.0   16.7   5.95 1.2047    41.7   211    2     95.0   10 
18/07/18  3:50p    9.6    9.8    9.6    53    0.4   0.0   ---   0.00   0.0   ---    9.6    8.9    8.9  1015.6  0.00   0.0   0.061   0.000   18.7    28   -0.2   16.5   5.95 1.2057    41.7   210    2     94.6   10 
18/07/18  4:00p    9.3    9.6    9.3    54    0.4   0.0   ---   0.00   0.0   ---    9.3    8.7    8.7  1015.9  0.00   0.0   0.063   0.000   18.4    28   -0.4   16.2   5.95 1.2072    41.7   209    2     94.1   10 
18/07/18  4:10p    9.1    9.3    9.1    55    0.5   0.0   ---   0.00   0.0   ---    9.1    8.5    8.5  1015.9  0.00   0.0   0.064   0.000   18.3    28   -0.5   16.1   5.95 1.2077    41.7   212    2     95.5   10 
18/07/18  4:20p    8.9    9.1    8.9    56    0.6   0.0   ---   0.00   0.0   ---    8.9    8.3    8.3  1016.3  0.00   0.0   0.066   0.000   18.2    28   -0.7   15.9   5.96 1.2090    41.7   208    2     93.7   10 
18/07/18  4:30p    8.6    8.6    8.6    57    0.6   0.0   ---   0.00   0.0   ---    8.6    8.1    8.1  1016.3  0.00   0.0   0.068   0.000   18.0    28   -0.8   15.7   5.96 1.2098    41.7   213    2     95.9   10 
18/07/18  4:40p    8.3    8.6    8.3    57    0.2   0.0   WNW   0.00   3.2   WNW    8.3    7.8    7.8  1016.3  0.00   0.0   0.070   0.000   17.9    29   -0.4   15.7   6.15 1.2100    41.7   211    2     95.0   10 
18/07/18  4:50p    8.1    8.2    8.1    58    0.3   0.0   ---   0.00   0.0   ---    8.1    7.6    7.6  1016.6  0.00   0.0   0.071   0.000   17.7    29   -0.6   15.6   6.15 1.2111    41.7   214    2     96.4   10 
18/07/18  5:00p    7.7    7.9    7.7    58   -0.1   0.0   ---   0.00   0.0   ---    7.7    7.2    7.2  1016.6  0.00   0.0   0.074   0.000   17.6    30   -0.2   15.6   6.28 1.2114    41.7   218    2     98.2   10 
18/07/18  5:10p    7.5    7.7    7.5    59   -0.0   0.0   ---   0.00   0.0   ---    7.5    7.1    7.1  1016.6  0.00   0.0   0.075   0.000   17.6    30   -0.2   15.6   6.28 1.2114    41.7   193    2     86.9   10 
18/07/18  5:20p    7.0    7.0    7.0    60   -0.2   0.0   ---   0.00   0.0   ---    7.0    6.6    6.6  1016.8  0.00   0.0   0.079   0.000   17.7    31    0.4   15.7   6.47 1.2109    41.7   191    2     86.0   10 
18/07/18  5:30p    6.5    6.9    6.5    61   -0.5   0.0   ---   0.00   0.0   ---    6.5    6.1    6.1  1017.1  0.00   0.0   0.082   0.000   17.7    31    0.4   15.7   6.47 1.2113    41.7   207    2     93.2   10 
18/07/18  5:40p    6.3    6.4    6.3    62   -0.5   0.0   ---   0.00   0.0   ---    6.3    5.8    5.8  1017.1  0.00   0.0   0.084   0.000   17.7    31    0.4   15.7   6.47 1.2113    41.7   207    2     93.2   10 
18/07/18  5:50p    5.9    6.1    5.9    63   -0.6   0.0   ---   0.00   0.0   ---    5.9    5.6    5.6  1017.3  0.00   0.0   0.086   0.000   17.6    32    0.7   15.6   6.58 1.2121    41.7   215    2     96.8   10 
18/07/18  6:00p    5.8    5.8    5.8    65   -0.3   0.0   ---   0.00   0.0   ---    5.8    5.4    5.4  1017.3  0.00   0.0   0.087   0.000   17.6    31    0.3   15.6   6.48 1.2121    41.7   211    2     95.0   10 
18/07/18  6:10p    5.8    5.8    5.8    65   -0.3   0.0   ---   0.00   0.0   ---    5.8    5.4    5.4  1017.3  0.00   0.0   0.087   0.000   17.7    31    0.4   15.7   6.47 1.2115    41.7   207    2     93.2   10 
18/07/18  6:20p    5.9    5.9    5.9    65   -0.1   0.0   ---   0.00   0.0   ---    5.9    5.6    5.6  1017.6  0.00   0.0   0.086   0.000   17.7    31    0.4   15.7   6.47 1.2119    41.7   196    2     88.3   10 
18/07/18  6:30p    6.1    6.1    5.9    66    0.2   0.0   ---   0.00   0.0   ---    6.1    5.7    5.7  1017.6  0.00   0.0   0.085   0.000   17.6    31    0.3   15.6   6.48 1.2124    41.7   210    2     94.6   10 
18/07/18  6:40p    6.1    6.1    6.1    66    0.2   0.0   ---   0.00   0.0   ---    6.1    5.7    5.7  1017.6  0.00   0.0   0.085   0.000   17.6    32    0.7   15.7   6.58 1.2122    41.7   201    2     90.5   10 
18/07/18  6:50p    ---    ---    ---   ---    ---   0.0   ---   0.00   0.0   ---    ---    ---    ---  1018.0  0.00   0.0     ---     ---   17.4    32    0.6   15.5   6.58 1.2133    41.7   217    2     97.7   10 
18/07/18  7:00p    ---    ---    ---   ---    ---   0.0   ---   0.00   0.0   ---    ---    ---    ---  1017.7  0.00   0.0     ---     ---   17.4    33    0.9   15.5   6.78 1.2131    41.7   212    2     95.5   10 
18/07/18  7:10p    5.9    5.9    5.9    67    0.2   0.0   ---   0.00   0.0   ---    5.9    5.5    5.5  1017.7  0.00   0.0   0.086   0.000   17.3    34    1.3   15.4   6.89 1.2133    41.7   215    2     96.8   10 
18/07/18  7:20p    ---    ---    ---    67    ---   0.0   ---   0.00   0.0   ---    ---    ---    ---  1018.0  0.00   0.0     ---     ---   17.2    34    1.2   15.4   6.89 1.2139    41.7   215    2     96.8   10 
18/07/18  7:30p    ---    ---    ---    67    ---   0.0   ---   0.00   0.0   ---    ---    ---    ---  1018.0  0.00   0.0     ---     ---   17.0    35    1.4   15.2   7.05 1.2147    41.7   212    2     95.5   10 
18/07/18  7:40p    5.2    5.3    5.2    67   -0.5   0.0   ---   0.00   0.0   ---    5.2    4.8    4.8  1018.0  0.00   0.0   0.091   0.000   16.8    35    1.3   15.1   7.05 1.2155    41.7   213    2     95.9   10 
18/07/18  7:50p    5.4    5.4    5.1    67   -0.3   0.0   ---   0.00   0.0   ---    5.4    5.0    5.0  1018.2  0.00   0.0   0.090   0.000   16.8    35    1.2   15.0   7.05 1.2160    41.7   210    2     94.6   10 
18/07/18  8:00p    5.2    5.3    5.2    71    0.4   0.0   ---   0.00   0.0   ---    5.2    4.9    4.9  1018.2  0.00   0.0   0.091   0.000   16.7    35    1.1   14.9   7.05 1.2166    41.7   215    2     96.8   10 
18/07/18  8:10p    5.2    5.2    5.2    71    0.4   0.0   ---   0.00   0.0   ---    5.2    4.9    4.9  1018.2  0.00   0.0   0.091   0.000   16.5    36    1.4   14.8   7.22 1.2171    41.7   215    2     96.8   10 
18/07/18  8:20p    5.2    5.2    5.2    71    0.4   0.0   ---   0.00   0.0   ---    5.2    4.9    4.9  1017.9  0.00   0.0   0.091   0.000   16.4    36    1.3   14.7   7.22 1.2172    41.7   211    2     95.0   10 
18/07/18  8:30p    5.3    5.3    5.2    71    0.5   0.0   ---   0.00   0.0   ---    5.3    5.0    5.0  1017.8  0.00   0.0   0.090   0.000   16.2    36    1.1   14.5   7.23 1.2179    41.7   215    2     96.8   10 
18/07/18  8:40p    5.2    5.3    5.2    71    0.4   0.0   ---   0.00   0.0   ---    5.2    4.9    4.9  1017.8  0.00   0.0   0.091   0.000   16.2    36    1.1   14.5   7.23 1.2179    41.7   217    2     97.7   10 
18/07/18  8:50p    5.2    5.2    5.2    72    0.5   0.0   ---   0.00   0.0   ---    5.2    4.9    4.9  1017.6  0.00   0.0   0.091   0.000   16.2    36    1.1   14.4   7.23 1.2179    41.7   214    2     96.4   10 
18/07/18  9:00p    5.2    5.2    5.2    72    0.5   0.0   ---   0.00   0.0   ---    5.2    4.9    4.9  1017.8  0.00   0.0   0.091   0.000   16.1    36    1.0   14.3   7.23 1.2187    41.7   217    2     97.7   10 
18/07/18  9:10p    5.0    5.2    5.0    72    0.4   0.0   ---   0.00   0.0   ---    5.0    4.7    4.7  1017.8  0.00   0.0   0.093   0.000   16.1    36    1.0   14.3   7.23 1.2187    41.7   213    2     95.9   10 
18/07/18  9:20p    5.0    5.0    5.0    73    0.6   0.0   ---   0.00   0.0   ---    5.0    4.7    4.7  1017.5  0.00   0.0   0.093   0.000   16.0    37    1.3   14.3   7.35 1.2184    41.7   215    2     96.8   10 
18/07/18  9:30p    4.8    4.9    4.8    73    0.4   0.0   ---   0.00   0.0   ---    4.8    4.6    4.6  1017.5  0.00   0.0   0.094   0.000   16.0    36    0.9   14.3   7.23 1.2187    41.7   209    2     94.1   10 
18/07/18  9:40p    4.8    4.8    4.8    74    0.5   0.0   ---   0.00   0.0   ---    4.8    4.5    4.5  1017.5  0.00   0.0   0.094   0.000   16.0    36    0.9   14.3   7.23 1.2187    41.7   212    2     95.5   10 
18/07/18  9:50p    4.7    4.8    4.7    74    0.4   0.0   ---   0.00   0.0   ---    4.7    4.4    4.4  1017.6  0.00   0.0   0.095   0.000   16.1    36    1.0   14.3   7.23 1.2185    41.7   218    2     98.2   10 
18/07/18 10:00p    4.4    4.6    4.4    75    0.4   0.0   ---   0.00   0.0   ---    4.4    4.2    4.2  1017.5  0.00   0.0   0.096   0.000   16.1    36    1.0   14.3   7.23 1.2183    41.7   215    2     96.8   10 
18/07/18 10:10p    4.4    4.4    4.4    75    0.4   0.0   ---   0.00   0.0   ---    4.4    4.2    4.2  1017.5  0.00   0.0   0.096   0.000   16.0    35    0.5   14.2   7.05 1.2188    41.7   219    2     98.6   10 
18/07/18 10:20p    4.4    4.4    4.4    75    0.3   0.0   ---   0.00   0.0   ---    4.4    4.1    4.1  1017.0  0.00   0.0   0.097   0.000   16.0    35    0.5   14.2   7.05 1.2182    41.7   212    2     95.5   10 
18/07/18 10:30p    4.4    4.4    4.4    75    0.3   0.0   ---   0.00   0.0   ---    4.4    4.1    4.1  1016.9  0.00   0.0   0.097   0.000   15.9    35    0.4   14.1   7.05 1.2187    41.7   208    2     93.7   10 
18/07/18 10:40p    4.4    4.4    4.4    75    0.4   0.0   ---   0.00   0.0   ---    4.4    4.2    4.2  1016.9  0.00   0.0   0.096   0.000   15.8    35    0.3   14.1   7.05 1.2192    41.7   216    2     97.3   10 
18/07/18 10:50p    4.3    4.3    4.3    75    0.2   0.0   ---   0.00   0.0   ---    4.3    4.0    4.0  1016.9  0.00   0.0   0.098   0.000   15.7    35    0.3   14.0   7.05 1.2194    41.7   208    2     93.7   10 
18/07/18 11:00p    4.2    4.3    4.2    75    0.2   0.0   ---   0.00   0.0   ---    4.2    3.9    3.9  1016.9  0.00   0.0   0.098   0.000   15.6    35    0.2   13.9   7.05 1.2199    41.7   220    2     99.1   10 
18/07/18 11:10p    4.2    4.2    4.2    76    0.4   0.0   ---   0.00   0.0   ---    4.2    4.0    4.0  1016.9  0.00   0.0   0.098   0.000   15.6    35    0.1   13.8   7.05 1.2202    41.7   214    2     96.4   10 
18/07/18 11:20p    4.1    4.2    4.1    76    0.3   0.0   ---   0.00   0.0   ---    4.1    3.9    3.9  1016.5  0.00   0.0   0.099   0.000   15.4    35    0.0   13.7   7.05 1.2203    41.7   216    2     97.3   10 
18/07/18 11:30p    4.0    4.1    4.0    77    0.3   0.0   ---   0.00   0.0   ---    4.0    3.8    3.8  1016.5  0.00   0.0   0.100   0.000   15.4    35   -0.0   13.7   7.05 1.2206    41.7   211    2     95.0   10 
18/07/18 11:40p    3.9    4.0    3.9    77    0.2   0.0   ---   0.00   0.0   ---    3.9    3.7    3.7  1016.5  0.00   0.0   0.100   0.000   15.3    35   -0.1   13.6   7.05 1.2211    41.7   215    2     96.8   10 
18/07/18 11:50p    3.7    3.9    3.7    77    0.1   0.0   ---   0.00   0.0   ---    3.7    3.5    3.5  1016.6  0.00   0.0   0.101   0.000   15.2    35   -0.2   13.5   7.05 1.2214    41.7   219    2     98.6   10 
19/07/18 12:00a    3.6    3.7    3.6    78    0.1   0.0   ---   0.00   0.0   ---    3.6    3.4    3.4  1016.6  0.00   0.0   0.103   0.000   15.1    35   -0.3   13.4   7.05 1.2219    41.7   215    2     96.8   10 
19/07/18 12:10a    3.8    3.8    3.6    77    0.2   0.0   ---   0.00   0.0   ---    3.8    3.6    3.6  1016.6  0.00   0.0   0.101   0.000   14.9    35   -0.4   13.2   7.05 1.2227    41.7   215    2     96.8   10 
19/07/18 12:20a    3.8    3.8    3.8    77    0.2   0.0   ---   0.00   0.0   ---    3.8    3.6    3.6  1016.4  0.00   0.0   0.101   0.000   14.9    35   -0.5   13.2   7.05 1.2227    41.7   211    2     95.0   10 
19/07/18 12:30a    3.7    3.8    3.7    77    0.0   0.0   ---   0.00   0.0   ---    3.7    3.4    3.4  1016.3  0.00   0.0   0.102   0.000   14.7    35   -0.6   13.1   7.05 1.2235    41.7   211    2     95.0   10 
19/07/18 12:40a    3.5    3.7    3.5    78    0.0   0.0   ---   0.00   0.0   ---    3.5    3.3    3.3  1016.3  0.00   0.0   0.103   0.000   14.6    35   -0.7   12.9   7.05 1.2240    41.7   216    2     97.3   10 
19/07/18 12:50a    3.6    3.6    3.5    77   -0.1   0.0   ---   0.00   0.0   ---    3.6    3.3    3.3  1016.3  0.00   0.0   0.103   0.000   14.6    35   -0.7   12.9   7.05 1.2242    41.7   215    2     96.8   10 
19/07/18  1:00a    3.6    3.6    3.5    77   -0.1   0.0   ---   0.00   0.0   ---    3.6    3.3    3.3  1016.2  0.00   0.0   0.103   0.000   14.4    35   -0.8   12.8   7.05 1.2246    41.7   213    2     95.9   10 
19/07/18  1:10a    3.9    3.9    3.6    76    0.0   0.0   ---   0.00   0.0   ---    3.9    3.7    3.7  1016.2  0.00   0.0   0.100   0.000   14.3    35   -0.9   12.7   7.05 1.2252    41.7   209    2     94.1   10 
19/07/18  1:20a    4.0    4.0    3.9    75   -0.0   0.0   ---   0.00   0.0   ---    4.0    3.8    3.8  1015.9  0.00   0.0   0.100   0.000   14.2    35   -1.1   12.5   7.05 1.2256    41.7   216    2     97.3   10 
19/07/18  1:30a    4.0    4.1    4.0    74   -0.2   0.0   ---   0.00   0.0   ---    4.0    3.7    3.7  1016.0  0.00   0.0   0.100   0.000   14.1    35   -1.1   12.5   7.05 1.2259    41.7   215    2     96.8   10 
19/07/18  1:40a    4.1    4.1    4.0    74   -0.1   0.0   ---   0.00   0.0   ---    4.1    3.8    3.8  1016.0  0.00   0.0   0.099   0.000   14.0    35   -1.2   12.4   7.05 1.2264    41.7   210    2     94.6   10 
19/07/18  1:50a    4.0    4.1    4.0    74   -0.2   0.0   ---   0.00   0.0   ---    4.0    3.7    3.7  1016.0  0.00   0.0   0.100   0.000   13.9    35   -1.3   12.3   7.05 1.2267    41.7   212    2     95.5   10 
19/07/18  2:00a    3.9    4.0    3.9    74   -0.3   0.0   ---   0.00   0.0   ---    3.9    3.7    3.7  1015.8  0.00   0.0   0.100   0.000   13.9    35   -1.3   12.3   7.05 1.2265    41.7   215    2     96.8   10 
19/07/18  2:10a    3.7    3.9    3.7    74   -0.5   0.0   ---   0.00   0.0   ---    3.7    3.5    3.5  1015.8  0.00   0.0   0.101   0.000   13.8    35   -1.4   12.2   7.05 1.2272    41.7   217    2     97.7   10 
19/07/18  2:20a    3.3    3.7    3.3    75   -0.7   0.0   ---   0.00   0.0   ---    3.3    3.1    3.1  1015.6  0.00   0.0   0.104   0.000   13.7    35   -1.5   12.1   7.05 1.2276    41.7   211    2     95.0   10 
19/07/18  2:30a    2.8    3.3    2.8    76   -1.0   0.0   ---   0.00   0.0   ---    2.8    2.6    2.6  1015.7  0.00   0.0   0.108   0.000   13.6    35   -1.6   12.1   7.05 1.2279    41.7   211    2     95.0   10 
19/07/18  2:40a    2.6    2.8    2.6    78   -0.9   0.0   ---   0.00   0.0   ---    2.6    2.4    2.4  1015.7  0.00   0.0   0.110   0.000   13.6    35   -1.6   12.0   7.05 1.2282    41.7   214    2     96.4   10 
19/07/18  2:50a    2.2    2.6    2.2    78   -1.3   0.0   ---   0.00   0.0   ---    2.2    2.0    2.0  1015.8  0.00   0.0   0.112   0.000   13.4    35   -1.7   11.9   7.05 1.2288    41.7   210    2     94.6   10 
19/07/18  3:00a    1.8    2.2    1.8    79   -1.4   0.0   ---   0.00   0.0   ---    1.8    1.7    1.7  1015.9  0.00   0.0   0.115   0.000   13.3    35   -1.9   11.7   7.05 1.2298    41.7   212    2     95.5   10 
19/07/18  3:10a    1.7    1.8    1.7    81   -1.2   0.0   ---   0.00   0.0   ---    1.7    1.6    1.6  1015.9  0.00   0.0   0.115   0.000   13.3    35   -1.9   11.7   7.05 1.2298    41.7   207    2     93.2   10 
19/07/18  3:20a    1.9    1.9    1.7    82   -0.9   0.0   ---   0.00   0.0   ---    1.9    1.7    1.7  1016.0  0.00   0.0   0.114   0.000   13.1    35   -2.0   11.6   7.05 1.2307    41.7   210    2     94.6   10 
19/07/18  3:30a    2.0    2.0    1.9    82   -0.8   0.0   ---   0.00   0.0   ---    2.0    1.8    1.8  1015.8  0.00   0.0   0.113   0.000   13.1    35   -2.0   11.6   7.05 1.2304    41.7   204    2     91.9   10 
19/07/18  3:40a    2.2    2.2    2.1    82   -0.6   0.0   ---   0.00   0.0   ---    2.2    2.0    2.0  1015.8  0.00   0.0   0.112   0.000   13.2    35   -1.9   11.7   7.05 1.2299    41.7   198    2     89.2   10 
19/07/18  3:50a    2.4    2.4    2.2    82   -0.4   0.0   ---   0.00   0.0   ---    2.4    2.2    2.2  1015.5  0.00   0.0   0.111   0.000   13.2    35   -1.9   11.7   7.05 1.2295    41.7   215    2     96.8   10 
19/07/18  4:00a    2.6    2.6    2.4    81   -0.4   0.0   ---   0.00   0.0   ---    2.6    2.4    2.4  1014.9  0.00   0.0   0.110   0.000   13.1    35   -2.0   11.6   7.05 1.2293    41.7   211    2     95.0   10 
19/07/18  4:10a    2.6    2.6    2.6    80   -0.5   0.0   ---   0.00   0.0   ---    2.6    2.4    2.4  1014.9  0.00   0.0   0.109   0.000   13.1    35   -2.1   11.6   7.05 1.2295    41.7   217    2     97.7   10 
19/07/18  4:20a    2.6    2.6    2.6    80   -0.5   0.0   ---   0.00   0.0   ---    2.6    2.4    2.4  1014.8  0.00   0.0   0.109   0.000   12.9    34   -2.6   11.4   6.86 1.2302    41.7   214    2     96.4   10 
19/07/18  4:30a    2.6    2.6    2.6    80   -0.5   0.0   ---   0.00   0.0   ---    2.6    2.4    2.4  1015.0  0.00   0.0   0.109   0.000   12.9    35   -2.2   11.4   7.05 1.2304    41.7   209    2     94.1   10 
19/07/18  4:40a    2.6    2.6    2.6    80   -0.5   0.0   ---   0.00   0.0   ---    2.6    2.4    2.4  1015.0  0.00   0.0   0.110   0.000   12.8    35   -2.3   11.3   7.05 1.2310    41.7   213    2     95.9   10 
19/07/18  4:50a    2.4    2.6    2.4    80   -0.7   0.0   ---   0.00   0.0   ---    2.4    2.3    2.3  1014.8  0.00   0.0   0.110   0.000   12.7    35   -2.4   11.3   7.05 1.2311    41.7   210    2     94.6   10 
19/07/18  5:00a    2.2    2.4    2.2    80   -0.9   0.0   ---   0.00   0.0   ---    2.2    2.1    2.1  1014.8  0.00   0.0   0.112   0.000   12.6    35   -2.5   11.2   7.06 1.2315    41.7   213    2     95.9   10 
19/07/18  5:10a    2.2    2.2    2.2    81   -0.8   0.0   ---   0.00   0.0   ---    2.2    2.0    2.0  1014.8  0.00   0.0   0.112   0.000   12.6    35   -2.5   11.1   7.07 1.2318    41.7   214    2     96.4   10 
19/07/18  5:20a    2.2    2.2    2.2    81   -0.8   0.0   ---   0.00   0.0   ---    2.2    2.0    2.0  1015.2  0.00   0.0   0.112   0.000   12.4    35   -2.7   11.0   7.08 1.2331    41.7   204    2     91.9   10 
19/07/18  5:30a    2.2    2.2    2.1    81   -0.8   0.0   ---   0.00   0.0   ---    2.2    2.0    2.0  1015.2  0.00   0.0   0.112   0.000   12.3    35   -2.8   10.9   7.09 1.2336    41.7   217    2     97.7   10 
19/07/18  5:40a    2.4    2.4    2.2    81   -0.5   0.0   ---   0.00   0.0   ---    2.4    2.2    2.2  1015.2  0.00   0.0   0.111   0.000   12.3    36   -2.4   10.9   7.19 1.2334    41.7   213    2     95.9   10 
19/07/18  5:50a    2.6    2.6    2.4    80   -0.5   0.0   ---   0.00   0.0   ---    2.6    2.4    2.4  1015.0  0.00   0.0   0.109   0.000   12.2    36   -2.4   10.9   7.19 1.2335    41.7   215    2     96.8   10 
19/07/18  6:00a    2.8    2.8    2.6    78   -0.7   0.0   ---   0.00   0.0   ---    2.8    2.6    2.6  1015.0  0.00   0.0   0.108   0.000   12.2    36   -2.4   10.9   7.19 1.2334    41.7   210    2     94.6   10 
19/07/18  6:10a    2.8    2.8    2.8    78   -0.7   0.0   ---   0.00   0.0   ---    2.8    2.6    2.6  1015.0  0.00   0.0   0.108   0.000   12.1    36   -2.5   10.8   7.20 1.2339    41.7   215    2     96.8   10 
19/07/18  6:20a    2.6    2.8    2.6    78   -0.8   0.0   ---   0.00   0.0   ---    2.6    2.4    2.4  1014.8  0.00   0.0   0.109   0.000   12.1    36   -2.6   10.7   7.20 1.2340    41.7   210    2     94.6   10 
19/07/18  6:30a    2.6    2.6    2.6    78   -0.8   0.0   ---   0.00   0.0   ---    2.6    2.4    2.4  1014.8  0.00   0.0   0.109   0.000   12.1    36   -2.6   10.7   7.20 1.2340    41.7   205    2     92.3   10 
19/07/18  6:40a    2.7    2.7    2.6    78   -0.7   0.0   ---   0.00   0.0   ---    2.7    2.6    2.6  1014.8  0.00   0.0   0.108   0.000   11.9    36   -2.7   10.7   7.21 1.2345    41.7   218    2     98.2   10 
19/07/18  6:50a    2.7    2.7    2.7    78   -0.7   0.0   ---   0.00   0.0   ---    2.7    2.6    2.6  1014.8  0.00   0.0   0.108   0.000   11.9    37   -2.3   10.7   7.41 1.2343    41.7   207    2     93.2   10 
19/07/18  7:00a    2.7    2.7    2.7    78   -0.7   0.0   ---   0.00   0.0   ---    2.7    2.6    2.6  1014.9  0.00   0.0   0.108   0.000   11.9    37   -2.3   10.7   7.41 1.2345    41.7   214    2     96.4   10 
19/07/18  7:10a    2.4    2.7    2.4    78   -1.0   0.0   ---   0.00   0.0   ---    2.4    2.3    2.3  1014.9  0.00   0.0   0.110   0.000   12.1    38   -1.8   10.8   7.50 1.2336    41.7   212    2     95.5   10 
19/07/18  7:20a    2.2    2.4    2.2    79   -1.1   0.0   ---   0.00   0.0   ---    2.2    2.0    2.0  1015.6  0.00   0.0   0.112   0.000   12.2    39   -1.3   10.9   7.69 1.2337    41.7   215    2     96.8   10 
19/07/18  7:30a    2.2    2.2    2.2    80   -0.9   0.0   ---   0.00   0.0   ---    2.2    2.1    2.1  1015.8  0.00   0.0   0.112   0.000   12.3    39   -1.3   11.0   7.69 1.2336    41.7   212    2     95.5   10 
19/07/18  7:40a    2.3    2.3    2.2    80   -0.8   0.0   ---   0.00   0.0   ---    2.3    2.1    2.1  1015.8  0.00   0.0   0.111   0.000   13.1    40   -0.2   11.8   7.85 1.2295    41.7   208    2     93.7   10 
19/07/18  7:50a    2.6    2.6    2.3    80   -0.5   0.0   ---   0.00   0.0   ---    2.6    2.4    2.4  1015.9  0.00   0.0   0.110   0.000   16.1    37    1.4   14.4   7.35 1.2162    41.7   209    2     94.1   10 
19/07/18  8:00a    2.7    2.7    2.6    79   -0.6   0.0   ---   0.00   0.0   ---    2.7    2.6    2.6  1015.9  0.00   0.0   0.108   0.000   16.7    35    1.1   14.9   7.05 1.2138    41.7   204    2     91.9   10 
19/07/18  8:10a    2.9    2.9    2.7    79   -0.3   0.0   ---   0.00   0.0   ---    2.9    2.8    2.8  1015.9  0.00   0.0   0.107   0.000   17.1    32    0.3   15.2   6.59 1.2124    41.7   204    2     91.9   10 
19/07/18  8:20a    3.2    3.2    2.9    78   -0.3   0.0   ---   0.00   0.0   ---    3.2    3.0    3.0  1015.8  0.00   0.0   0.105   0.000   17.4    31    0.1   15.4   6.48 1.2110    41.7   216    2     97.3   10 
19/07/18  8:30a    3.7    3.7    3.2    77    0.0   0.0   ---   0.00   0.0   ---    3.7    3.4    3.4  1015.5  0.00   0.0   0.102   0.000   18.0    30    0.1   15.9   6.26 1.2083    41.7   215    2     96.8   10 
19/07/18  8:40a    4.1    4.1    3.7    76    0.2   0.0   ---   0.00   0.0   ---    4.1    3.8    3.8  1015.5  0.00   0.0   0.099   0.000   18.0    30    0.1   15.9   6.26 1.2083    41.7   215    2     96.8   10 
19/07/18  8:50a    4.6    4.6    4.1    75    0.5   0.0   ---   0.00   0.0   ---    4.6    4.3    4.3  1015.4  0.00   0.0   0.096   0.000   18.8    29    0.4   16.7   6.13 1.2046    41.7   203    2     91.4   10 
19/07/18  9:00a    4.8    4.8    4.6    73    0.4   0.0   ---   0.00   0.0   ---    4.8    4.6    4.6  1015.4  0.00   0.0   0.094   0.000   19.6    28    0.6   17.4   5.95 1.2013    41.7   215    2     96.8   10 
19/07/18  9:10a    5.4    5.4    4.8    73    0.9   0.0   ---   0.00   0.0   ---    5.4    5.1    5.1  1015.4  0.00   0.0   0.090   0.000   19.9    28    0.8   17.7   5.95 1.2000    41.7   206    2     92.8   10 
19/07/18  9:20a    5.9    5.9    5.4    71    1.0   0.0   ---   0.00   0.0   ---    5.9    5.6    5.6  1015.4  0.00   0.0   0.086   0.000   20.3    28    1.2   18.2   5.95 1.1982    41.7   213    2     95.9   10 
19/07/18  9:30a    6.3    6.3    5.9    68    0.8   0.0   ---   0.00   0.0   ---    6.3    5.9    5.9  1015.5  0.00   0.0   0.084   0.000   20.6    28    1.4   18.4   5.95 1.1971    41.7   215    2     96.8   10 
19/07/18  9:40a    6.5    6.5    6.3    68    1.0   0.0   ---   0.00   0.0   ---    6.5    6.2    6.2  1015.5  0.00   0.0   0.082   0.000   20.7    27    1.0   18.6   5.85 1.1967    41.7   209    2     94.1   10 
19/07/18  9:50a    6.8    6.8    6.5    65    0.7   0.0   ---   0.00   0.0   ---    6.8    6.4    6.4  1015.3  0.00   0.0   0.080   0.000   20.7    27    1.0   18.6   5.85 1.1964    41.7   214    2     96.4   10 
19/07/18 10:00a    7.1    7.1    6.8    63    0.5   0.0   WNW   0.00   4.8   WNW    7.1    6.7    6.7  1015.2  0.00   0.0   0.078   0.000   20.6    27    0.9   18.4   5.85 1.1968    41.7   219    2     98.6   10 
19/07/18 10:10a    7.7    7.7    7.1    62    0.8   0.0   ---   0.00   0.0   ---    7.7    7.2    7.2  1015.2  0.00   0.0   0.074   0.000   20.3    27    0.7   18.1   5.85 1.1983    41.7   215    2     96.8   10